Time;durP1;ratioP1;P1;durP2;ratioP2;P2;SDS_P1;SDS_P2;PMS_P1;PMS_P2;Temp;Humidity;BMP_temperature;BMP_pressure;BME280_temperature;BME280_humidity;BME280_pressure;Samples;Min_cycle;Max_cycle;Signal;HPM_P1;HPM_P2
2024/03/19 00:00:41;;;;;;;4.82;3.40;;;3.60;86.90;;;;;;5010084;28;20091;-70
2024/03/19 00:03:27;;;;;;;5.72;3.50;;;3.60;86.90;;;;;;5021674;28;20084;-70
2024/03/19 00:06:13;;;;;;;6.80;3.85;;;3.50;86.90;;;;;;5020768;28;20110;-68
2024/03/19 00:08:59;;;;;;;5.53;3.42;;;3.50;86.90;;;;;;5040749;28;20049;-69
2024/03/19 00:11:45;;;;;;;5.05;3.47;;;3.50;87.00;;;;;;5096300;28;20040;-69
2024/03/19 00:14:31;;;;;;;4.18;3.33;;;3.50;87.00;;;;;;5038672;28;20068;-70
2024/03/19 00:17:17;;;;;;;5.43;3.38;;;3.50;87.10;;;;;;5043004;27;20118;-69
2024/03/19 00:20:08;;;;;;;4.60;3.17;;;3.50;87.20;;;;;;5028157;28;20034;-69
2024/03/19 00:22:54;;;;;;;5.70;3.78;;;3.50;87.30;;;;;;5023170;28;20034;-69
2024/03/19 00:25:40;;;;;;;4.70;3.88;;;3.50;87.40;;;;;;5026453;28;20042;-69
2024/03/19 00:28:26;;;;;;;5.43;4.00;;;3.50;87.50;;;;;;5054506;27;20035;-68
2024/03/19 00:31:12;;;;;;;6.97;4.07;;;3.40;87.50;;;;;;5028044;28;20110;-69
2024/03/19 00:33:58;;;;;;;5.22;3.50;;;3.40;87.60;;;;;;5024334;28;20128;-69
2024/03/19 00:36:44;;;;;;;5.13;3.67;;;3.40;87.70;;;;;;5027213;28;20050;-69
2024/03/19 00:39:31;;;;;;;6.50;4.03;;;3.40;87.80;;;;;;5029969;27;20076;-70
2024/03/19 00:42:17;;;;;;;5.35;4.15;;;3.40;87.90;;;;;;5014085;28;20041;-70
2024/03/19 00:45:04;;;;;;;6.20;3.88;;;3.40;87.90;;;;;;5020936;28;20471;-69
2024/03/19 00:47:50;;;;;;;5.47;3.35;;;3.40;88.10;;;;;;5028965;28;20069;-69
2024/03/19 00:50:36;;;;;;;5.75;3.78;;;3.40;88.10;;;;;;5041611;27;20116;-69
2024/03/19 00:53:22;;;;;;;6.15;4.32;;;3.30;88.10;;;;;;5027929;28;20080;-69
2024/03/19 00:56:08;;;;;;;6.50;4.00;;;3.30;88.20;;;;;;5028905;28;20037;-69
2024/03/19 00:58:54;;;;;;;5.43;3.50;;;3.30;88.20;;;;;;5014925;28;20034;-68
2024/03/19 01:01:40;;;;;;;5.03;3.72;;;3.30;88.40;;;;;;5021251;27;20590;-68
2024/03/19 01:04:26;;;;;;;6.00;4.13;;;3.20;88.40;;;;;;5049029;27;20435;-68
2024/03/19 01:07:11;;;;;;;5.18;3.42;;;3.20;88.40;;;;;;5016714;28;20064;-70
2024/03/19 01:09:57;;;;;;;5.35;3.25;;;3.20;88.50;;;;;;5023398;28;20041;-68
2024/03/19 01:12:43;;;;;;;6.00;3.53;;;3.20;88.50;;;;;;5030641;27;20041;-68
2024/03/19 01:15:29;;;;;;;5.70;3.33;;;3.20;88.60;;;;;;5037605;27;20053;-68
2024/03/19 01:18:15;;;;;;;3.85;3.22;;;3.10;88.60;;;;;;5016954;28;20109;-69
2024/03/19 01:21:02;;;;;;;5.97;3.20;;;3.10;88.70;;;;;;5017729;28;20046;-68
2024/03/19 01:23:48;;;;;;;5.00;3.38;;;3.10;88.80;;;;;;5028412;28;20045;-69
2024/03/19 01:26:34;;;;;;;4.85;3.28;;;3.10;88.80;;;;;;5023566;28;20076;-69
2024/03/19 01:29:20;;;;;;;4.20;3.25;;;3.10;88.90;;;;;;5018548;28;20397;-68
2024/03/19 01:32:06;;;;;;;4.25;3.10;;;3.10;88.80;;;;;;5023162;27;20035;-69
2024/03/19 01:34:52;;;;;;;5.95;3.88;;;3.20;88.90;;;;;;5028471;28;20073;-69
2024/03/19 01:37:38;;;;;;;4.75;3.45;;;3.10;88.80;;;;;;5023908;28;20681;-69
2024/03/19 01:40:24;;;;;;;8.07;3.35;;;3.10;88.90;;;;;;5021573;28;20045;-69
2024/03/19 01:43:14;;;;;;;4.75;3.25;;;3.10;89.00;;;;;;5063285;27;20035;-69
2024/03/19 01:46:05;;;;;;;4.53;3.35;;;3.10;89.00;;;;;;5028224;28;20111;-69
2024/03/19 01:48:52;;;;;;;4.55;3.47;;;3.10;89.00;;;;;;5018299;28;20573;-69
2024/03/19 01:51:39;;;;;;;4.93;3.20;;;3.10;89.00;;;;;;5026952;28;20489;-68
2024/03/19 01:54:26;;;;;;;5.65;3.33;;;3.10;89.10;;;;;;5081800;27;20481;-70
2024/03/19 01:57:12;;;;;;;4.72;3.53;;;3.10;89.10;;;;;;5018711;28;20393;-69
2024/03/19 01:59:58;;;;;;;5.50;3.25;;;3.10;89.10;;;;;;5062281;27;20039;-70
2024/03/19 02:02:44;;;;;;;5.43;3.25;;;3.10;89.20;;;;;;5068764;27;20037;-69
2024/03/19 02:05:30;;;;;;;4.93;4.03;;;3.10;89.30;;;;;;5035032;28;20523;-69
2024/03/19 02:08:16;;;;;;;5.88;3.63;;;3.00;89.30;;;;;;5059346;28;20443;-70
2024/03/19 02:11:02;;;;;;;7.43;4.07;;;3.00;89.30;;;;;;5013553;28;20574;-70
2024/03/19 02:13:48;;;;;;;3.70;3.05;;;3.00;89.30;;;;;;5009520;28;20038;-69
2024/03/19 02:16:35;;;;;;;5.40;3.20;;;3.00;89.40;;;;;;5040119;28;20033;-69
2024/03/19 02:19:23;;;;;;;4.10;3.13;;;3.00;89.40;;;;;;5025451;28;20038;-70
2024/03/19 02:22:09;;;;;;;6.10;3.25;;;2.90;89.50;;;;;;5015299;28;20042;-70
2024/03/19 02:24:57;;;;;;;6.38;3.55;;;2.90;89.60;;;;;;5034826;27;20106;-69
2024/03/19 02:27:44;;;;;;;4.68;3.67;;;2.90;89.70;;;;;;5046036;27;20090;-69
2024/03/19 02:30:30;;;;;;;5.22;3.70;;;2.90;89.80;;;;;;5031453;27;20045;-69
2024/03/19 02:33:16;;;;;;;4.30;3.45;;;2.90;89.80;;;;;;5022182;28;20121;-69
2024/03/19 02:36:02;;;;;;;5.40;3.20;;;2.90;89.80;;;;;;5039253;27;20036;-68
2024/03/19 02:38:48;;;;;;;4.45;3.38;;;2.90;89.90;;;;;;5031739;28;20033;-68
2024/03/19 02:41:35;;;;;;;4.80;2.92;;;2.90;90.00;;;;;;5026498;28;20148;-68
2024/03/19 02:44:22;;;;;;;5.88;3.85;;;2.90;90.00;;;;;;5040489;27;20483;-69
2024/03/19 02:47:07;;;;;;;5.65;3.40;;;2.90;90.00;;;;;;5016558;28;20095;-69
2024/03/19 02:49:54;;;;;;;7.28;3.83;;;2.80;90.00;;;;;;5032574;28;20053;-70
2024/03/19 02:52:40;;;;;;;5.82;3.47;;;2.80;90.00;;;;;;5016897;28;20061;-69
2024/03/19 02:55:26;;;;;;;5.80;4.00;;;2.80;90.10;;;;;;5024662;28;20125;-69
2024/03/19 02:58:12;;;;;;;5.57;3.40;;;2.80;90.10;;;;;;5028200;28;20045;-70
2024/03/19 03:00:58;;;;;;;5.68;3.95;;;2.70;90.10;;;;;;5020672;28;20029;-69
2024/03/19 03:03:44;;;;;;;5.10;3.45;;;2.70;90.10;;;;;;5021903;28;20126;-74
2024/03/19 03:06:30;;;;;;;4.82;3.33;;;2.70;90.20;;;;;;5029634;28;20497;-74
2024/03/19 03:09:17;;;;;;;5.72;3.22;;;2.70;90.20;;;;;;5027695;28;20040;-73
2024/03/19 03:12:03;;;;;;;6.35;3.80;;;2.70;90.30;;;;;;5027797;28;20046;-73
2024/03/19 03:14:49;;;;;;;5.40;3.63;;;2.70;90.20;;;;;;5026131;28;20460;-73
2024/03/19 03:17:37;;;;;;;7.47;3.70;;;2.70;90.30;;;;;;5087179;28;20125;-74
2024/03/19 03:20:23;;;;;;;5.50;3.40;;;2.70;90.30;;;;;;5017466;28;20037;-73
2024/03/19 03:23:09;;;;;;;5.30;3.13;;;2.70;90.30;;;;;;5021767;28;20128;-75
2024/03/19 03:25:55;;;;;;;5.78;3.53;;;2.70;90.30;;;;;;5021268;28;20061;-73
2024/03/19 03:28:41;;;;;;;7.25;4.03;;;2.80;90.40;;;;;;5037528;28;20480;-73
2024/03/19 03:31:27;;;;;;;5.70;3.78;;;2.70;90.40;;;;;;5125091;27;20039;-72
2024/03/19 03:34:13;;;;;;;5.68;3.50;;;2.70;90.40;;;;;;5040902;28;20042;-73
2024/03/19 03:36:59;;;;;;;5.97;3.47;;;2.70;90.40;;;;;;5053439;27;20066;-74
2024/03/19 03:39:45;;;;;;;7.32;4.20;;;2.70;90.40;;;;;;5017128;28;20099;-74
2024/03/19 03:42:31;;;;;;;5.55;4.22;;;2.70;90.40;;;;;;5031118;28;20041;-75
2024/03/19 03:45:21;;;;;;;6.05;3.80;;;2.70;90.40;;;;;;5020820;28;20464;-72
2024/03/19 03:48:07;;;;;;;5.50;3.75;;;2.70;90.50;;;;;;5020425;28;20110;-70
2024/03/19 03:50:53;;;;;;;8.00;3.67;;;2.70;90.70;;;;;;5037138;27;20061;-70
2024/03/19 03:53:39;;;;;;;7.25;4.05;;;2.70;90.50;;;;;;5112850;27;20033;-70
2024/03/19 03:56:25;;;;;;;5.32;3.85;;;2.70;90.50;;;;;;5018128;28;21238;-69
2024/03/19 03:59:11;;;;;;;4.78;3.90;;;2.70;90.50;;;;;;5032626;28;20492;-70
2024/03/19 04:01:57;;;;;;;6.40;4.20;;;2.80;90.60;;;;;;5043921;27;20489;-70
2024/03/19 04:04:43;;;;;;;5.40;4.20;;;2.70;90.50;;;;;;5035572;27;20551;-70
2024/03/19 04:07:29;;;;;;;5.25;3.80;;;2.70;90.50;;;;;;5021995;27;20485;-70
2024/03/19 04:10:16;;;;;;;6.05;4.53;;;2.70;90.50;;;;;;5022609;28;20484;-70
2024/03/19 04:13:02;;;;;;;7.43;4.00;;;2.70;90.50;;;;;;5029926;28;20065;-70
2024/03/19 04:15:50;;;;;;;8.55;4.32;;;2.60;90.50;;;;;;5014281;28;20061;-70
2024/03/19 04:18:35;;;;;;;6.15;4.20;;;2.60;90.60;;;;;;5025203;28;20132;-71
2024/03/19 04:21:21;;;;;;;5.68;3.65;;;2.60;90.60;;;;;;5049027;27;20047;-70
2024/03/19 04:24:07;;;;;;;6.68;4.40;;;2.60;90.60;;;;;;5029088;28;20535;-69
2024/03/19 04:26:54;;;;;;;5.85;4.43;;;2.60;90.70;;;;;;5021806;28;20052;-70
2024/03/19 04:29:41;;;;;;;7.75;4.95;;;2.60;90.70;;;;;;5084585;28;20511;-70
2024/03/19 04:32:26;;;;;;;7.35;4.55;;;2.60;90.70;;;;;;5020186;28;20048;-70
2024/03/19 04:35:13;;;;;;;7.28;4.57;;;2.60;90.70;;;;;;5024505;28;20041;-69
2024/03/19 04:37:58;;;;;;;7.03;4.78;;;2.50;90.70;;;;;;5029947;28;20107;-70
2024/03/19 04:40:44;;;;;;;6.20;4.32;;;2.50;90.70;;;;;;5057253;27;20412;-70
2024/03/19 04:43:32;;;;;;;6.20;4.25;;;2.50;90.80;;;;;;5062794;27;20462;-70
2024/03/19 04:46:18;;;;;;;7.32;4.95;;;2.50;90.80;;;;;;5018901;28;20053;-71
2024/03/19 04:49:04;;;;;;;8.48;4.35;;;2.40;90.80;;;;;;5024287;28;20492;-70
2024/03/19 04:51:51;;;;;;;7.00;5.40;;;2.40;90.80;;;;;;5011043;28;20065;-69
2024/03/19 04:54:37;;;;;;;7.35;4.85;;;2.40;90.80;;;;;;5025297;28;20040;-70
2024/03/19 04:57:23;;;;;;;6.85;5.25;;;2.40;90.80;;;;;;5028862;28;20531;-70
2024/03/19 05:00:14;;;;;;;6.13;4.40;;;2.40;90.90;;;;;;5044179;27;20116;-71
2024/03/19 05:03:00;;;;;;;7.35;4.40;;;2.40;90.90;;;;;;5024410;28;20057;-71
2024/03/19 05:05:45;;;;;;;8.55;4.28;;;2.40;90.90;;;;;;5016912;28;20050;-70
2024/03/19 05:08:31;;;;;;;10.20;4.90;;;2.30;90.90;;;;;;5016958;28;20077;-70
2024/03/19 05:11:17;;;;;;;8.80;4.97;;;2.40;91.00;;;;;;5039140;27;20112;-70
2024/03/19 05:14:03;;;;;;;8.88;4.85;;;2.30;91.00;;;;;;5027279;28;20044;-70
2024/03/19 05:16:49;;;;;;;8.48;4.78;;;2.30;91.00;;;;;;5028273;28;20160;-70
2024/03/19 05:19:35;;;;;;;6.88;4.47;;;2.30;91.00;;;;;;5027870;28;20030;-70
2024/03/19 05:22:21;;;;;;;6.72;4.50;;;2.30;91.00;;;;;;5044265;27;20455;-69
2024/03/19 05:25:07;;;;;;;7.30;5.00;;;2.30;91.00;;;;;;5020543;28;20573;-70
2024/03/19 05:27:54;;;;;;;8.48;4.85;;;2.30;91.00;;;;;;5051301;27;20382;-71
2024/03/19 05:30:40;;;;;;;7.60;5.00;;;2.20;91.10;;;;;;5029023;28;20416;-70
2024/03/19 05:33:26;;;;;;;7.68;4.68;;;2.20;91.10;;;;;;5061956;27;20047;-70
2024/03/19 05:36:12;;;;;;;5.57;4.43;;;2.20;91.40;;;;;;5027986;28;20405;-70
2024/03/19 05:38:58;;;;;;;7.22;4.78;;;2.30;91.20;;;;;;5028692;28;20052;-70
2024/03/19 05:41:44;;;;;;;6.68;4.90;;;2.30;91.20;;;;;;5026852;28;20037;-70
2024/03/19 05:44:30;;;;;;;8.13;4.35;;;2.30;91.20;;;;;;5018338;28;20044;-69
2024/03/19 05:47:16;;;;;;;10.98;5.70;;;2.30;91.20;;;;;;5026951;28;20124;-70
2024/03/19 05:50:03;;;;;;;7.57;4.95;;;2.30;91.20;;;;;;5015700;28;20037;-70
2024/03/19 05:52:49;;;;;;;8.40;4.68;;;2.30;91.30;;;;;;5027487;28;20033;-71
2024/03/19 05:55:34;;;;;;;7.20;5.55;;;2.30;91.30;;;;;;5020283;28;20046;-70
2024/03/19 05:58:20;;;;;;;6.13;4.40;;;2.30;91.40;;;;;;5027929;28;20045;-70
2024/03/19 06:01:07;;;;;;;7.15;5.13;;;2.30;91.40;;;;;;5042903;28;20110;-70
2024/03/19 06:03:53;;;;;;;8.05;5.57;;;2.40;91.40;;;;;;5017863;28;20455;-71
2024/03/19 06:06:39;;;;;;;7.25;4.95;;;2.40;91.40;;;;;;5015971;28;20052;-70
2024/03/19 06:09:25;;;;;;;9.80;4.95;;;2.40;91.40;;;;;;5023448;28;20050;-70
2024/03/19 06:12:11;;;;;;;6.65;4.53;;;2.50;91.40;;;;;;5076692;28;20039;-70
2024/03/19 06:14:57;;;;;;;6.80;4.60;;;2.60;91.40;;;;;;5036300;28;20044;-71
2024/03/19 06:17:42;;;;;;;7.28;4.80;;;2.60;91.40;;;;;;5056264;28;20125;-71
2024/03/19 06:20:28;;;;;;;7.88;5.38;;;2.70;91.70;;;;;;5025730;28;20041;-71
2024/03/19 06:23:14;;;;;;;9.27;5.68;;;2.70;91.50;;;;;;5015495;28;20485;-71
2024/03/19 06:26:00;;;;;;;11.57;6.43;;;2.70;91.50;;;;;;5074016;28;20058;-71
2024/03/19 06:28:46;;;;;;;11.57;6.50;;;2.70;91.40;;;;;;5013526;28;20045;-69
2024/03/19 06:31:32;;;;;;;10.90;5.15;;;2.80;91.40;;;;;;5035739;28;20037;-70
2024/03/19 06:34:18;;;;;;;9.25;5.90;;;2.80;91.40;;;;;;5047035;28;20030;-71
2024/03/19 06:37:04;;;;;;;8.23;5.45;;;2.90;91.50;;;;;;5024650;28;20038;-69
2024/03/19 06:39:50;;;;;;;9.23;6.32;;;2.90;91.50;;;;;;5018083;28;20041;-71
2024/03/19 06:42:37;;;;;;;13.45;6.05;;;3.00;91.50;;;;;;5021958;28;20037;-70
2024/03/19 06:45:23;;;;;;;10.48;5.60;;;3.00;91.50;;;;;;5044451;28;20097;-72
2024/03/19 06:48:09;;;;;;;24.70;7.60;;;3.10;91.60;;;;;;5029898;28;20030;-73
2024/03/19 06:50:55;;;;;;;11.77;6.80;;;3.10;91.50;;;;;;5040921;28;20053;-71
2024/03/19 06:53:40;;;;;;;11.18;6.57;;;3.10;91.50;;;;;;5033044;28;20118;-70
2024/03/19 06:56:26;;;;;;;11.65;6.53;;;3.20;91.50;;;;;;5026210;28;20080;-71
2024/03/19 06:59:14;;;;;;;10.13;6.35;;;3.20;91.50;;;;;;5079642;28;20069;-75
2024/03/19 07:02:04;;;;;;;13.05;7.07;;;3.20;91.50;;;;;;5011746;28;20037;-73
2024/03/19 07:04:51;;;;;;;9.60;6.35;;;3.30;91.40;;;;;;5018917;28;20498;-69
2024/03/19 07:07:38;;;;;;;10.93;6.75;;;3.30;91.40;;;;;;5029221;28;20428;-68
2024/03/19 07:10:25;;;;;;;15.98;7.20;;;3.40;91.40;;;;;;5024067;27;20042;-67
2024/03/19 07:13:10;;;;;;;9.43;6.05;;;3.40;91.40;;;;;;5027366;28;20045;-73
2024/03/19 07:15:56;;;;;;;10.93;7.13;;;3.40;91.40;;;;;;5022729;28;20033;-72
2024/03/19 07:18:42;;;;;;;12.48;7.38;;;3.50;91.40;;;;;;5033571;27;20045;-71
2024/03/19 07:21:28;;;;;;;10.05;6.78;;;3.50;91.40;;;;;;5021162;28;20038;-73
2024/03/19 07:24:14;;;;;;;12.65;7.70;;;3.60;91.50;;;;;;5024924;28;20045;-74
2024/03/19 07:27:00;;;;;;;11.02;7.03;;;3.70;91.50;;;;;;5020321;28;20073;-72
2024/03/19 07:29:46;;;;;;;16.63;7.40;;;3.70;91.50;;;;;;5031088;28;20034;-72
2024/03/19 07:32:32;;;;;;;11.80;7.45;;;3.80;91.70;;;;;;5019018;28;20071;-72
2024/03/19 07:35:18;;;;;;;10.35;6.60;;;3.90;91.50;;;;;;5047289;27;20030;-72
2024/03/19 07:38:12;;;;;;;12.93;8.75;;;4.00;91.50;;;;;;5019647;28;20037;-72
2024/03/19 07:40:58;;;;;;;7.07;5.47;;;4.20;91.90;;;;;;5027542;28;20034;-73
2024/03/19 07:43:44;;;;;;;12.15;7.78;;;4.20;91.70;;;;;;5029007;28;20102;-74
2024/03/19 07:46:31;;;;;;;11.52;7.72;;;4.30;91.80;;;;;;5019135;28;20050;-73
2024/03/19 07:49:18;;;;;;;13.70;7.75;;;4.50;91.80;;;;;;5025134;28;20060;-71
2024/03/19 07:52:04;;;;;;;13.68;7.75;;;4.60;91.80;;;;;;5033248;27;20033;-70
2024/03/19 07:54:50;;;;;;;12.65;8.27;;;4.70;91.80;;;;;;5032807;27;20038;-72
2024/03/19 07:57:37;;;;;;;15.82;8.68;;;4.80;91.80;;;;;;5020652;28;20118;-73
2024/03/19 08:00:23;;;;;;;16.50;8.57;;;4.90;91.80;;;;;;5030193;28;20029;-73
2024/03/19 08:03:08;;;;;;;17.85;9.52;;;5.00;91.70;;;;;;5029529;28;20045;-71
2024/03/19 08:05:58;;;;;;;13.85;8.48;;;5.10;91.70;;;;;;5028002;28;20062;-72
2024/03/19 08:08:44;;;;;;;12.75;8.40;;;5.10;91.50;;;;;;5079299;28;20054;-72
2024/03/19 08:11:30;;;;;;;13.00;8.00;;;5.20;91.50;;;;;;5022697;28;20044;-72
2024/03/19 08:14:16;;;;;;;15.07;9.07;;;5.20;91.30;;;;;;5030763;28;20065;-73
2024/03/19 08:17:02;;;;;;;13.02;8.98;;;5.30;91.30;;;;;;5023534;28;20041;-71
2024/03/19 08:19:48;;;;;;;13.73;9.02;;;5.30;91.20;;;;;;5036840;27;20076;-71
2024/03/19 08:22:34;;;;;;;12.38;8.07;;;5.50;91.30;;;;;;5065977;27;20116;-72
2024/03/19 08:25:20;;;;;;;12.70;8.75;;;5.50;91.20;;;;;;5077416;27;20050;-72
2024/03/19 08:28:07;;;;;;;11.30;7.88;;;5.60;91.10;;;;;;5020469;28;20088;-71
2024/03/19 08:30:53;;;;;;;11.73;8.02;;;5.70;91.10;;;;;;5033964;27;20045;-72
2024/03/19 08:33:39;;;;;;;16.88;9.30;;;5.70;90.90;;;;;;5030733;28;20081;-72
2024/03/19 08:36:27;;;;;;;13.18;8.48;;;5.80;91.00;;;;;;5019777;27;20418;-72
2024/03/19 08:39:12;;;;;;;15.93;9.45;;;5.90;90.90;;;;;;5023413;28;20055;-73
2024/03/19 08:41:58;;;;;;;12.35;8.25;;;6.00;91.00;;;;;;5026811;27;20037;-72
2024/03/19 08:44:44;;;;;;;18.00;8.85;;;6.10;90.80;;;;;;5027556;28;20042;-72
2024/03/19 08:47:30;;;;;;;14.82;7.90;;;6.20;90.70;;;;;;5024017;28;20049;-72
2024/03/19 08:50:16;;;;;;;10.82;8.18;;;6.20;90.60;;;;;;5019019;28;20041;-72
2024/03/19 08:53:02;;;;;;;13.18;8.27;;;6.30;90.50;;;;;;5080301;28;20092;-72
2024/03/19 08:55:56;;;;;;;12.27;7.97;;;6.30;90.40;;;;;;5022454;28;20521;-71
2024/03/19 08:58:43;;;;;;;12.45;7.72;;;6.40;90.20;;;;;;5027135;28;20477;-72
2024/03/19 09:01:29;;;;;;;10.77;7.03;;;6.40;90.00;;;;;;5022552;28;20082;-72
2024/03/19 09:04:15;;;;;;;9.45;6.93;;;6.50;90.00;;;;;;5031265;27;20069;-72
2024/03/19 09:07:01;;;;;;;12.35;8.15;;;6.60;89.90;;;;;;5018288;28;22522;-72
2024/03/19 09:09:48;;;;;;;11.40;6.50;;;6.60;89.30;;;;;;5022930;28;20520;-72
2024/03/19 09:12:34;;;;;;;11.77;6.65;;;6.70;89.00;;;;;;5088439;27;20413;-72
2024/03/19 09:15:22;;;;;;;10.80;7.13;;;6.70;88.80;;;;;;5079705;27;20042;-73
2024/03/19 09:18:08;;;;;;;9.77;6.03;;;6.80;88.70;;;;;;5029644;28;20049;-72
2024/03/19 09:20:54;;;;;;;11.35;7.10;;;6.90;88.70;;;;;;5018888;28;20030;-72
2024/03/19 09:23:40;;;;;;;10.00;7.20;;;6.90;88.30;;;;;;5026295;28;20405;-71
2024/03/19 09:26:26;;;;;;;10.88;6.35;;;7.00;88.00;;;;;;5027638;28;20076;-73
2024/03/19 09:29:11;;;;;;;10.60;6.88;;;7.00;87.70;;;;;;5047135;27;20101;-75
2024/03/19 09:31:57;;;;;;;9.85;5.95;;;7.10;87.50;;;;;;5020701;28;20042;-75
2024/03/19 09:34:43;;;;;;;9.15;6.82;;;7.10;87.40;;;;;;5028448;28;20045;-70
2024/03/19 09:37:31;;;;;;;10.75;6.90;;;7.20;87.20;;;;;;5028741;28;20061;-73
2024/03/19 09:40:17;;;;;;;9.70;6.28;;;7.20;86.90;;;;;;5028071;28;20129;-71
2024/03/19 09:43:04;;;;;;;9.35;5.75;;;7.20;86.80;;;;;;5014140;28;20064;-71
2024/03/19 09:45:51;;;;;;;10.30;6.18;;;7.30;86.70;;;;;;5020419;28;20056;-69
2024/03/19 09:48:38;;;;;;;13.35;7.32;;;7.40;86.60;;;;;;5028276;28;20057;-72
2024/03/19 09:51:26;;;;;;;15.10;6.82;;;7.40;86.20;;;;;;5023493;28;20057;-70
2024/03/19 09:54:13;;;;;;;10.85;6.85;;;7.50;86.10;;;;;;5028022;28;20405;-69
2024/03/19 09:57:01;;;;;;;9.63;6.65;;;7.50;85.50;;;;;;5025576;28;20038;-67
2024/03/19 09:59:50;;;;;;;10.57;7.35;;;7.50;85.40;;;;;;5038402;28;20054;-68
2024/03/19 10:02:36;;;;;;;9.00;6.22;;;7.60;85.30;;;;;;5034565;28;20487;-68
2024/03/19 10:05:23;;;;;;;10.32;6.32;;;7.60;85.20;;;;;;5025612;28;20077;-68
2024/03/19 10:08:15;;;;;;;8.77;6.60;;;7.70;85.00;;;;;;5027505;28;20080;-69
2024/03/19 10:11:01;;;;;;;9.00;6.38;;;7.80;84.80;;;;;;5026198;28;20484;-68
2024/03/19 10:13:48;;;;;;;8.73;6.15;;;7.80;84.80;;;;;;5014086;28;20580;-69
